Florida/ Paulista, Brazil
Current Conditions -  °F | °C
As of 10:00 AM on Monday 24 Nov 2014 (Local Time) from SBDN Reporting Station
Overcast Overcast  
Wind Chill: 73°   Ceiling: 1500
Heat Index: 73°   Visibility: 6mi
Dew Point: 68°   Wind: 10mph
Humidity: 83%   Direction: 110°ESE
Pressure: 29.94"   Gusts: NA
Location:  21.61°S, 51.17°W
Report Text: SBDN 241200Z 11009KT 9999 SCT008 BKN015 OVC100 23/20 Q1014
Loading
Personal Weather Stations






























Interactive Weather Map New forecast layout! Learn more

10-Day Weather Forecast

Advertisements
Track Severe Weather on mobile